Time;durP1;ratioP1;P1;durP2;ratioP2;P2;SDS_P1;SDS_P2;PMS_P1;PMS_P2;Temp;Humidity;BMP_temperature;BMP_pressure;BME280_temperature;BME280_humidity;BME280_pressure;Samples;Min_cycle;Max_cycle;Signal;HPM_P1;HPM_P2
2021/05/03 00:00:25;;;;;;;10.18;2.58;;;;;;;;;;4989695;28;20025;-72
2021/05/03 00:02:51;;;;;;;13.20;3.38;;;;;;;;;;4991893;28;20026;-67
2021/05/03 00:05:25;;;;;;;10.15;2.70;;;;;;;;;;5008194;28;20072;-70
2021/05/03 00:07:51;;;;;;;8.95;2.83;;;;;;;;;;5040058;28;20050;-71
2021/05/03 00:10:17;;;;;;;10.80;3.10;;;;;;;;;;5008013;28;20033;-71
2021/05/03 00:12:44;;;;;;;10.15;2.78;;;;;;;;;;5008869;28;20022;-70
2021/05/03 00:15:11;;;;;;;7.93;2.88;;;;;;;;;;5009357;28;20026;-75
2021/05/03 00:17:37;;;;;;;6.97;3.13;;;;;;;;;;5009178;28;20022;-75
2021/05/03 00:20:04;;;;;;;7.97;2.85;;;;;;;;;;5009185;28;20032;-74
2021/05/03 00:22:30;;;;;;;11.00;2.88;;;;;;;;;;5036165;28;20018;-71
2021/05/03 00:24:56;;;;;;;7.95;3.47;;;;;;;;;;5008628;28;20125;-74
2021/05/03 00:27:23;;;;;;;5.80;2.92;;;;;;;;;;5007902;28;20026;-72
2021/05/03 00:29:49;;;;;;;7.47;3.05;;;;;;;;;;5008838;28;20037;-71
2021/05/03 00:32:15;;;;;;;8.18;3.00;;;;;;;;;;5009040;28;20079;-69
2021/05/03 00:34:41;;;;;;;6.30;2.83;;;;;;;;;;5008946;28;20385;-75
2021/05/03 00:37:07;;;;;;;7.05;2.97;;;;;;;;;;5008809;28;20025;-70
2021/05/03 00:39:33;;;;;;;7.95;3.22;;;;;;;;;;5008864;28;20492;-73
2021/05/03 00:42:00;;;;;;;7.10;2.97;;;;;;;;;;5008822;28;20026;-70
2021/05/03 00:44:27;;;;;;;6.90;3.45;;;;;;;;;;5040351;28;20038;-71
2021/05/03 00:46:56;;;;;;;7.13;3.45;;;;;;;;;;5003573;28;20018;-70
2021/05/03 00:49:22;;;;;;;5.45;2.72;;;;;;;;;;5008776;28;20467;-75
2021/05/03 00:51:48;;;;;;;8.27;3.30;;;;;;;;;;5008774;28;20083;-75
2021/05/03 00:54:14;;;;;;;5.70;2.70;;;;;;;;;;5006206;28;20448;-72
2021/05/03 00:56:40;;;;;;;5.43;2.58;;;;;;;;;;5008522;28;20052;-74
2021/05/03 00:59:07;;;;;;;6.45;3.47;;;;;;;;;;5008357;28;20018;-70
2021/05/03 01:01:33;;;;;;;7.28;2.67;;;;;;;;;;5007198;28;20037;-70
2021/05/03 01:04:00;;;;;;;7.75;3.25;;;;;;;;;;5008694;28;20026;-70
2021/05/03 01:06:26;;;;;;;6.32;3.17;;;;;;;;;;5008638;28;20475;-75
2021/05/03 01:08:52;;;;;;;5.65;2.92;;;;;;;;;;5007367;28;20596;-69
2021/05/03 01:11:18;;;;;;;6.43;3.70;;;;;;;;;;5008347;28;20026;-75
2021/05/03 01:13:44;;;;;;;7.60;3.00;;;;;;;;;;5039889;28;20029;-70
2021/05/03 01:16:10;;;;;;;8.23;3.47;;;;;;;;;;5008222;28;20014;-75
2021/05/03 01:18:37;;;;;;;5.50;2.83;;;;;;;;;;5008199;28;20025;-73
2021/05/03 01:21:03;;;;;;;7.75;3.88;;;;;;;;;;5007996;28;20022;-72
2021/05/03 01:23:29;;;;;;;6.50;3.85;;;;;;;;;;5008202;28;20048;-73
2021/05/03 01:25:56;;;;;;;8.15;3.42;;;;;;;;;;5040094;28;20045;-71
2021/05/03 01:28:22;;;;;;;5.55;3.28;;;;;;;;;;5040088;28;20022;-69
2021/05/03 01:30:48;;;;;;;5.70;3.33;;;;;;;;;;5008187;28;20022;-72
2021/05/03 01:33:16;;;;;;;7.13;3.30;;;;;;;;;;5007834;28;20046;-72
2021/05/03 01:35:45;;;;;;;4.97;3.17;;;;;;;;;;5008010;28;20040;-73
2021/05/03 01:38:12;;;;;;;4.95;3.17;;;;;;;;;;5039941;28;20343;-70
2021/05/03 01:40:40;;;;;;;6.60;3.10;;;;;;;;;;4998711;28;20022;-69
2021/05/03 01:43:14;;;;;;;4.85;2.80;;;;;;;;;;4988412;28;20018;-74
2021/05/03 01:45:41;;;;;;;5.22;3.15;;;;;;;;;;4987123;28;20054;-74
2021/05/03 01:48:07;;;;;;;5.47;2.88;;;;;;;;;;4988543;28;20030;-71
2021/05/03 01:50:34;;;;;;;6.00;3.03;;;;;;;;;;4988551;28;20079;-71
2021/05/03 01:53:01;;;;;;;5.65;3.30;;;;;;;;;;4987117;28;20167;-72
2021/05/03 01:55:27;;;;;;;5.53;3.15;;;;;;;;;;4988454;28;20022;-74
2021/05/03 01:57:53;;;;;;;4.93;2.80;;;;;;;;;;4987233;28;20026;-71
2021/05/03 02:00:19;;;;;;;5.22;2.88;;;;;;;;;;4988384;28;20022;-71
2021/05/03 02:02:46;;;;;;;5.82;2.90;;;;;;;;;;4988403;28;20026;-70
2021/05/03 02:05:16;;;;;;;6.07;3.10;;;;;;;;;;4987028;28;20062;-74
2021/05/03 02:07:43;;;;;;;5.95;3.30;;;;;;;;;;4991608;28;20018;-75
2021/05/03 02:10:09;;;;;;;6.15;3.28;;;;;;;;;;4991595;28;20022;-74
2021/05/03 02:12:39;;;;;;;5.93;3.80;;;;;;;;;;4997238;28;20493;-74
2021/05/03 02:15:06;;;;;;;5.72;3.55;;;;;;;;;;5010966;28;20108;-75
2021/05/03 02:17:32;;;;;;;7.43;3.05;;;;;;;;;;5010818;28;20018;-74
2021/05/03 02:19:58;;;;;;;6.90;3.40;;;;;;;;;;5010883;28;20037;-71
2021/05/03 02:22:24;;;;;;;8.25;2.95;;;;;;;;;;5009758;28;20124;-69
2021/05/03 02:24:50;;;;;;;6.18;3.28;;;;;;;;;;5011024;28;20055;-69
2021/05/03 02:27:16;;;;;;;5.13;2.92;;;;;;;;;;5010926;28;20060;-75
2021/05/03 02:29:42;;;;;;;5.07;3.17;;;;;;;;;;5010855;28;20037;-70
2021/05/03 02:32:08;;;;;;;5.18;2.97;;;;;;;;;;5010749;28;20050;-69
2021/05/03 02:34:35;;;;;;;4.60;2.88;;;;;;;;;;5010745;28;20481;-74
2021/05/03 02:37:01;;;;;;;5.47;3.00;;;;;;;;;;5010545;28;20049;-70
2021/05/03 02:39:27;;;;;;;5.90;3.13;;;;;;;;;;5010500;28;20022;-72
2021/05/03 02:41:53;;;;;;;5.57;3.10;;;;;;;;;;5010627;28;20527;-74
2021/05/03 02:44:19;;;;;;;5.07;3.15;;;;;;;;;;5010710;28;20034;-74
2021/05/03 02:46:45;;;;;;;5.57;2.80;;;;;;;;;;5010500;28;20026;-73
2021/05/03 02:49:11;;;;;;;4.15;2.75;;;;;;;;;;5010485;28;20018;-70
2021/05/03 02:51:37;;;;;;;7.97;3.20;;;;;;;;;;5042067;27;20125;-69
2021/05/03 02:54:04;;;;;;;4.97;2.90;;;;;;;;;;5010215;28;20466;-74
2021/05/03 02:56:31;;;;;;;5.65;3.58;;;;;;;;;;5009792;28;20029;-70
2021/05/03 02:58:57;;;;;;;4.72;2.90;;;;;;;;;;5009682;28;20055;-73
2021/05/03 03:01:23;;;;;;;7.40;3.53;;;;;;;;;;5009681;28;20053;-72
2021/05/03 03:03:49;;;;;;;7.13;3.33;;;;;;;;;;5041667;28;20033;-69
2021/05/03 03:06:15;;;;;;;4.85;2.67;;;;;;;;;;5009748;28;20041;-75
2021/05/03 03:08:41;;;;;;;5.18;2.90;;;;;;;;;;5009544;28;20068;-73
2021/05/03 03:11:07;;;;;;;5.50;3.33;;;;;;;;;;5009469;28;20026;-75
2021/05/03 03:13:33;;;;;;;6.72;2.75;;;;;;;;;;5009617;28;20022;-74
2021/05/03 03:15:59;;;;;;;4.32;2.83;;;;;;;;;;5009517;28;20036;-69
2021/05/03 03:18:26;;;;;;;5.68;3.30;;;;;;;;;;5008535;28;20041;-72
2021/05/03 03:20:52;;;;;;;4.32;2.58;;;;;;;;;;5040802;28;20480;-70
2021/05/03 03:23:18;;;;;;;5.13;3.10;;;;;;;;;;5009161;28;20018;-73
2021/05/03 03:25:44;;;;;;;11.25;3.72;;;;;;;;;;5009027;28;20038;-69
2021/05/03 03:28:10;;;;;;;4.95;2.88;;;;;;;;;;5009227;28;20022;-75
2021/05/03 03:30:36;;;;;;;7.55;3.42;;;;;;;;;;5009127;28;20474;-70
2021/05/03 03:33:03;;;;;;;4.57;2.50;;;;;;;;;;5008860;28;20123;-74
2021/05/03 03:35:29;;;;;;;4.35;2.25;;;;;;;;;;5040774;28;20026;-70
2021/05/03 03:37:56;;;;;;;4.28;2.50;;;;;;;;;;5009168;28;20022;-70
2021/05/03 03:40:22;;;;;;;5.15;2.42;;;;;;;;;;5001940;28;20024;-75
2021/05/03 03:42:48;;;;;;;4.57;2.47;;;;;;;;;;4989358;28;20019;-74
2021/05/03 03:45:15;;;;;;;5.32;3.05;;;;;;;;;;4987961;28;20064;-74
2021/05/03 03:47:41;;;;;;;4.25;2.65;;;;;;;;;;4989877;28;20523;-72
2021/05/03 03:50:08;;;;;;;5.97;3.05;;;;;;;;;;4990126;28;20041;-74
2021/05/03 03:52:34;;;;;;;5.55;2.95;;;;;;;;;;4988892;28;20122;-70
2021/05/03 03:55:00;;;;;;;4.97;2.35;;;;;;;;;;4990016;28;20022;-70
2021/05/03 03:57:27;;;;;;;4.25;2.17;;;;;;;;;;4990161;28;20030;-73
2021/05/03 03:59:55;;;;;;;4.05;2.47;;;;;;;;;;4989821;28;20491;-74
2021/05/03 04:02:21;;;;;;;5.28;2.63;;;;;;;;;;4989678;28;20029;-71
2021/05/03 04:05:05;;;;;;;5.32;2.67;;;;;;;;;;4989741;28;20041;-74
2021/05/03 04:26:26;;;;;;;5.93;2.53;;;;;;;;;;4989718;28;20049;-70
2021/05/03 04:28:52;;;;;;;5.10;3.00;;;;;;;;;;4989394;28;20478;-70
2021/05/03 04:31:20;;;;;;;6.50;2.88;;;;;;;;;;4996857;28;20054;-74
2021/05/03 04:33:46;;;;;;;4.57;2.80;;;;;;;;;;5007894;28;20030;-74
2021/05/03 04:36:12;;;;;;;6.63;2.80;;;;;;;;;;5008300;28;20082;-75
2021/05/03 04:38:38;;;;;;;4.70;2.20;;;;;;;;;;5007963;28;20021;-70
2021/05/03 04:41:05;;;;;;;4.75;2.72;;;;;;;;;;5008004;28;20057;-72
2021/05/03 04:43:31;;;;;;;5.00;2.60;;;;;;;;;;5008384;28;20030;-74
2021/05/03 04:45:57;;;;;;;5.22;3.22;;;;;;;;;;5007917;28;20090;-70
2021/05/03 04:48:23;;;;;;;4.50;2.60;;;;;;;;;;5039570;28;20030;-71
2021/05/03 04:50:49;;;;;;;7.43;2.83;;;;;;;;;;5007680;28;20490;-72
2021/05/03 04:53:15;;;;;;;4.45;2.63;;;;;;;;;;5008047;28;20025;-70
2021/05/03 04:55:42;;;;;;;6.55;2.50;;;;;;;;;;5008266;28;20041;-74
2021/05/03 04:58:08;;;;;;;5.03;2.80;;;;;;;;;;5008706;28;20033;-70
2021/05/03 05:00:34;;;;;;;4.55;2.58;;;;;;;;;;5040404;28;20070;-75
2021/05/03 05:03:00;;;;;;;5.18;2.70;;;;;;;;;;5008400;28;20026;-75
2021/05/03 05:05:27;;;;;;;4.25;2.60;;;;;;;;;;5008367;28;20060;-69
2021/05/03 05:07:54;;;;;;;4.22;2.20;;;;;;;;;;5008544;28;20025;-70
2021/05/03 05:10:20;;;;;;;4.40;2.50;;;;;;;;;;5008369;28;20022;-74
2021/05/03 05:12:46;;;;;;;6.47;2.35;;;;;;;;;;5008413;28;20022;-74
2021/05/03 05:15:12;;;;;;;3.72;2.28;;;;;;;;;;5008290;28;20471;-74
2021/05/03 05:17:38;;;;;;;3.92;2.20;;;;;;;;;;5040083;28;20022;-74
2021/05/03 05:20:06;;;;;;;4.38;2.63;;;;;;;;;;5008482;28;20026;-73
2021/05/03 05:22:32;;;;;;;3.60;1.88;;;;;;;;;;5008279;28;20147;-69
2021/05/03 05:25:00;;;;;;;3.88;2.40;;;;;;;;;;5039755;28;20489;-74
2021/05/03 05:27:26;;;;;;;4.30;2.00;;;;;;;;;;5037221;28;20030;-69
2021/05/03 05:29:52;;;;;;;5.47;2.42;;;;;;;;;;5008018;28;20036;-74
2021/05/03 05:32:18;;;;;;;5.53;2.17;;;;;;;;;;5007802;28;20046;-69
2021/05/03 05:34:44;;;;;;;5.03;2.65;;;;;;;;;;5039811;28;20111;-73
2021/05/03 05:37:11;;;;;;;5.72;2.83;;;;;;;;;;5007783;28;20022;-71
2021/05/03 05:39:37;;;;;;;3.42;2.05;;;;;;;;;;5044281;28;20026;-73
2021/05/03 05:42:04;;;;;;;3.80;2.00;;;;;;;;;;5112681;28;20023;-69
2021/05/03 05:44:30;;;;;;;5.13;2.20;;;;;;;;;;5113579;28;20484;-73
2021/05/03 05:46:56;;;;;;;5.05;2.30;;;;;;;;;;5113587;28;20472;-69
2021/05/03 05:49:22;;;;;;;4.30;2.15;;;;;;;;;;5114725;28;20436;-73
2021/05/03 05:51:48;;;;;;;4.20;2.03;;;;;;;;;;5114883;28;20499;-69
2021/05/03 05:54:14;;;;;;;4.55;2.10;;;;;;;;;;5115042;28;20085;-70
2021/05/03 05:56:40;;;;;;;5.47;2.90;;;;;;;;;;5114897;28;20055;-70
2021/05/03 05:59:07;;;;;;;5.22;2.42;;;;;;;;;;5114635;28;20052;-70
2021/05/03 06:01:33;;;;;;;4.88;2.60;;;;;;;;;;5114786;28;20047;-70
2021/05/03 06:03:59;;;;;;;5.30;1.90;;;;;;;;;;5114607;28;20019;-74
2021/05/03 06:06:25;;;;;;;3.97;2.33;;;;;;;;;;5114675;28;20055;-70
2021/05/03 06:08:51;;;;;;;4.57;2.42;;;;;;;;;;5114672;28;20476;-73
2021/05/03 06:11:17;;;;;;;4.65;2.30;;;;;;;;;;5114610;28;20031;-69
2021/05/03 06:13:43;;;;;;;4.05;2.17;;;;;;;;;;5114544;28;20380;-74
2021/05/03 06:16:09;;;;;;;5.75;2.00;;;;;;;;;;5113090;28;20020;-69
2021/05/03 06:18:36;;;;;;;4.60;2.10;;;;;;;;;;5112894;28;20034;-70
2021/05/03 06:21:02;;;;;;;4.90;2.33;;;;;;;;;;5114146;28;20024;-73
2021/05/03 06:23:28;;;;;;;5.10;2.38;;;;;;;;;;5114254;28;20031;-74
2021/05/03 06:25:54;;;;;;;4.35;2.20;;;;;;;;;;5114231;28;20034;-69
2021/05/03 06:28:22;;;;;;;5.13;2.75;;;;;;;;;;5114382;28;20023;-73
2021/05/03 06:30:53;;;;;;;4.43;2.50;;;;;;;;;;5114099;28;20464;-75
2021/05/03 06:33:19;;;;;;;5.43;2.53;;;;;;;;;;5113820;27;20396;-71
2021/05/03 06:35:45;;;;;;;5.32;2.40;;;;;;;;;;5052715;28;20108;-70
2021/05/03 06:38:11;;;;;;;6.22;2.40;;;;;;;;;;5009893;28;20022;-71
2021/05/03 06:40:37;;;;;;;3.90;2.10;;;;;;;;;;5017445;28;20168;-74
2021/05/03 06:43:04;;;;;;;4.40;2.42;;;;;;;;;;4990763;28;20022;-71
2021/05/03 06:45:32;;;;;;;4.30;2.20;;;;;;;;;;4990571;28;20444;-73
2021/05/03 06:47:58;;;;;;;5.28;2.85;;;;;;;;;;4990517;28;20044;-72
2021/05/03 06:50:24;;;;;;;5.72;2.17;;;;;;;;;;4990777;28;20038;-69
2021/05/03 06:52:51;;;;;;;5.97;2.42;;;;;;;;;;5039043;28;20343;-76
2021/05/03 06:55:17;;;;;;;6.30;2.25;;;;;;;;;;4989094;28;20129;-74
2021/05/03 06:57:43;;;;;;;6.00;2.13;;;;;;;;;;4990358;28;20095;-76
2021/05/03 07:00:11;;;;;;;5.10;2.63;;;;;;;;;;4989071;28;20049;-71
2021/05/03 07:02:38;;;;;;;4.72;2.00;;;;;;;;;;4990510;28;20390;-75
2021/05/03 07:05:04;;;;;;;3.05;1.80;;;;;;;;;;4988862;28;20072;-72
2021/05/03 07:07:31;;;;;;;7.47;1.80;;;;;;;;;;4990414;28;20093;-73
2021/05/03 07:09:57;;;;;;;7.45;2.28;;;;;;;;;;5009060;28;20018;-76
2021/05/03 07:12:24;;;;;;;4.38;1.98;;;;;;;;;;5041544;28;20022;-70
2021/05/03 07:14:51;;;;;;;7.00;1.88;;;;;;;;;;5009924;28;20022;-70
2021/05/03 07:17:17;;;;;;;3.92;1.73;;;;;;;;;;5009659;28;20030;-71
2021/05/03 07:19:43;;;;;;;3.92;1.50;;;;;;;;;;5009673;28;20432;-71
2021/05/03 07:22:10;;;;;;;3.67;1.63;;;;;;;;;;5009591;28;20029;-71
2021/05/03 07:24:36;;;;;;;3.53;1.75;;;;;;;;;;5009031;28;20493;-71
2021/05/03 07:27:03;;;;;;;4.95;1.63;;;;;;;;;;5021658;28;20034;-71
2021/05/03 07:29:29;;;;;;;5.82;2.05;;;;;;;;;;4991860;28;20061;-76
2021/05/03 07:31:55;;;;;;;4.45;1.95;;;;;;;;;;5041158;28;20079;-70
2021/05/03 07:34:21;;;;;;;2.42;1.50;;;;;;;;;;5009715;28;20033;-76
2021/05/03 07:36:47;;;;;;;4.88;1.40;;;;;;;;;;5041190;28;20473;-75
2021/05/03 07:39:13;;;;;;;5.13;1.55;;;;;;;;;;5009368;28;20069;-75
2021/05/03 07:41:41;;;;;;;3.72;1.40;;;;;;;;;;5056729;27;20017;-76
2021/05/03 07:44:07;;;;;;;5.65;1.75;;;;;;;;;;4989659;28;20030;-69
2021/05/03 07:46:33;;;;;;;5.07;1.60;;;;;;;;;;4990010;28;20026;-71
2021/05/03 07:49:00;;;;;;;5.65;1.90;;;;;;;;;;4990090;28;20026;-74
2021/05/03 07:51:26;;;;;;;6.18;1.48;;;;;;;;;;5021238;28;20026;-76
2021/05/03 07:53:53;;;;;;;3.58;1.60;;;;;;;;;;5020998;28;20026;-78
2021/05/03 07:56:19;;;;;;;5.63;1.52;;;;;;;;;;4989696;28;20432;-77
2021/05/03 07:58:46;;;;;;;5.05;1.77;;;;;;;;;;5022295;28;20027;-78
2021/05/03 08:01:12;;;;;;;3.85;1.25;;;;;;;;;;5009004;28;20026;-79
2021/05/03 08:03:39;;;;;;;5.20;1.58;;;;;;;;;;5040194;27;20049;-76
2021/05/03 08:06:12;;;;;;;2.97;1.20;;;;;;;;;;5042312;28;20030;-82
2021/05/03 08:08:38;;;;;;;;;;;;;;;;;;5010168;28;20013;-75
2021/05/03 08:11:04;;;;;;;4.43;1.15;;;;;;;;;;5007429;28;20392;-75
2021/05/03 08:13:30;;;;;;;2.33;1.00;;;;;;;;;;5040529;28;20022;-75
2021/05/03 08:15:58;;;;;;;3.58;1.05;;;;;;;;;;5038228;28;20025;-76
2021/05/03 08:18:24;;;;;;;4.55;1.30;;;;;;;;;;5037367;28;20029;-77
2021/05/03 08:20:50;;;;;;;2.85;1.30;;;;;;;;;;5039989;28;20018;-78
2021/05/03 08:23:19;;;;;;;4.40;1.27;;;;;;;;;;5027053;28;20045;-72
2021/05/03 08:25:49;;;;;;;3.35;1.33;;;;;;;;;;5020774;28;20041;-73
2021/05/03 08:28:16;;;;;;;4.00;1.23;;;;;;;;;;4989263;28;20486;-74
2021/05/03 08:30:42;;;;;;;3.25;1.27;;;;;;;;;;4989044;28;20036;-72
2021/05/03 08:33:08;;;;;;;3.40;1.05;;;;;;;;;;4993289;28;20054;-72
2021/05/03 08:35:34;;;;;;;3.05;1.17;;;;;;;;;;5040347;28;20068;-72
2021/05/03 08:38:01;;;;;;;3.85;1.08;;;;;;;;;;5008633;28;20022;-72
2021/05/03 08:40:27;;;;;;;8.23;1.73;;;;;;;;;;5016202;28;20474;-74
2021/05/03 08:42:54;;;;;;;3.80;1.08;;;;;;;;;;5028323;28;20518;-76
2021/05/03 08:45:20;;;;;;;4.43;1.27;;;;;;;;;;5028003;28;20571;-75
2021/05/03 08:53:22;;;;;;;3.92;1.20;;;;;;;;;;5030897;28;20098;-74
2021/05/03 08:55:48;;;;;;;6.00;1.25;;;;;;;;;;5008725;28;20417;-75
2021/05/03 08:58:15;;;;;;;5.28;1.30;;;;;;;;;;5008216;28;20022;-76
2021/05/03 09:00:41;;;;;;;3.88;1.20;;;;;;;;;;5039995;28;20147;-70
2021/05/03 09:03:10;;;;;;;2.80;1.00;;;;;;;;;;5008304;28;20047;-70
2021/05/03 09:05:36;;;;;;;2.40;0.95;;;;;;;;;;5008049;28;20686;-72
2021/05/03 09:08:03;;;;;;;2.60;0.90;;;;;;;;;;5033310;28;20063;-80
2021/05/03 09:10:30;;;;;;;6.38;1.55;;;;;;;;;;5040096;28;20064;-71
2021/05/03 09:13:07;;;;;;;3.53;1.00;;;;;;;;;;5008055;28;20117;-79
2021/05/03 09:15:33;;;;;;;2.28;1.00;;;;;;;;;;5008472;28;20034;-72
2021/05/03 09:18:00;;;;;;;4.57;1.00;;;;;;;;;;5011755;28;20497;-71
2021/05/03 09:20:26;;;;;;;3.70;1.10;;;;;;;;;;5011881;28;20481;-79
2021/05/03 09:25:47;;;;;;;2.78;0.93;;;;;;;;;;4994404;28;20123;-72
2021/05/03 09:28:13;;;;;;;3.17;0.90;;;;;;;;;;4992001;28;20478;-74
2021/05/03 09:30:43;;;;;;;2.97;1.10;;;;;;;;;;4992289;28;20530;-71
2021/05/03 09:33:28;;;;;;;4.13;0.90;;;;;;;;;;4991924;28;20518;-68
2021/05/03 09:35:54;;;;;;;1.92;0.93;;;;;;;;;;4990439;28;20664;-71
2021/05/03 09:38:36;;;;;;;3.33;1.23;;;;;;;;;;4991565;28;20050;-68
2021/05/03 09:41:21;;;;;;;4.03;0.90;;;;;;;;;;4998571;28;20440;-72
2021/05/03 09:43:50;;;;;;;5.10;1.13;;;;;;;;;;5023429;28;20113;-83
2021/05/03 09:46:26;;;;;;;1.95;0.80;;;;;;;;;;5023002;28;20031;-75
2021/05/03 09:48:56;;;;;;;1.60;0.70;;;;;;;;;;4991890;28;20385;-76
2021/05/03 09:51:35;;;;;;;4.20;1.00;;;;;;;;;;5023468;28;20026;-71
2021/05/03 09:54:02;;;;;;;2.25;0.80;;;;;;;;;;4991914;28;20041;-78
2021/05/03 09:56:44;;;;;;;5.05;1.02;;;;;;;;;;4991635;28;20145;-69
2021/05/03 09:59:10;;;;;;;;;;;;;;;;;;5004700;28;20075;-73
2021/05/03 10:01:36;;;;;;;4.20;1.20;;;;;;;;;;5010823;28;19913;-87
2021/05/03 10:04:06;;;;;;;2.17;0.98;;;;;;;;;;5043616;28;20475;-67
2021/05/03 10:06:33;;;;;;;6.75;1.40;;;;;;;;;;5035953;28;20078;-69
2021/05/03 10:08:59;;;;;;;4.18;1.10;;;;;;;;;;4989959;28;20078;-80
2021/05/03 10:11:29;;;;;;;3.53;1.08;;;;;;;;;;4991194;28;20102;-72
2021/05/03 10:13:55;;;;;;;2.90;1.00;;;;;;;;;;4991246;28;20050;-74
2021/05/03 10:16:21;;;;;;;1.95;0.88;;;;;;;;;;4990421;28;20034;-72
2021/05/03 10:18:47;;;;;;;4.65;1.20;;;;;;;;;;4991080;28;20040;-73
2021/05/03 10:21:14;;;;;;;1.95;0.98;;;;;;;;;;4991947;28;20484;-78
2021/05/03 10:23:41;;;;;;;2.65;0.80;;;;;;;;;;5042215;28;20399;-71
2021/05/03 10:26:08;;;;;;;3.03;1.00;;;;;;;;;;5010409;28;20562;-71
2021/05/03 10:28:49;;;;;;;2.38;1.00;;;;;;;;;;5010533;28;20022;-76
2021/05/03 10:31:15;;;;;;;1.65;0.80;;;;;;;;;;5009855;28;20026;-69
2021/05/03 10:33:41;;;;;;;2.78;1.00;;;;;;;;;;4993044;28;20034;-74
2021/05/03 10:36:08;;;;;;;2.88;0.82;;;;;;;;;;4990470;28;20402;-77
2021/05/03 10:38:40;;;;;;;2.85;0.75;;;;;;;;;;4990588;28;20031;-79
2021/05/03 10:41:21;;;;;;;4.82;0.80;;;;;;;;;;5022020;28;20015;-81
2021/05/03 10:43:48;;;;;;;2.63;0.98;;;;;;;;;;4990664;28;20075;-76
2021/05/03 10:49:12;;;;;;;2.42;0.75;;;;;;;;;;4991461;28;20058;-76
2021/05/03 10:54:14;;;;;;;2.67;0.70;;;;;;;;;;4990914;28;20029;-81
2021/05/03 10:56:41;;;;;;;333.90;9.73;;;;;;;;;;5022212;28;20386;-80
2021/05/03 10:59:07;;;;;;;5.00;1.10;;;;;;;;;;4991654;28;20140;-86
2021/05/03 11:01:55;;;;;;;2.28;0.80;;;;;;;;;;5023998;28;20654;-85
2021/05/03 11:04:25;;;;;;;4.05;1.17;;;;;;;;;;5022141;28;20037;-77
2021/05/03 11:06:51;;;;;;;2.55;1.15;;;;;;;;;;5023143;28;20026;-68
2021/05/03 11:11:59;;;;;;;4.32;1.05;;;;;;;;;;4990577;28;20058;-74
2021/05/03 11:14:27;;;;;;;4.80;0.90;;;;;;;;;;4990394;28;20641;-73
2021/05/03 11:16:56;;;;;;;5.75;1.35;;;;;;;;;;4990412;28;20058;-75
2021/05/03 11:19:39;;;;;;;3.13;1.02;;;;;;;;;;5021462;28;20716;-74
2021/05/03 11:22:07;;;;;;;3.00;1.15;;;;;;;;;;4990232;28;20029;-73
2021/05/03 11:29:33;;;;;;;4.22;1.00;;;;;;;;;;5009874;28;20026;-71
2021/05/03 11:32:00;;;;;;;3.58;1.42;;;;;;;;;;5009770;28;20038;-67
2021/05/03 11:37:04;;;;;;;2.40;1.13;;;;;;;;;;5009688;28;20090;-69
2021/05/03 11:40:19;;;;;;;2.35;1.00;;;;;;;;;;5008176;28;20014;-71
2021/05/03 11:45:07;;;;;;;1.95;0.73;;;;;;;;;;4990038;28;20141;-72
2021/05/03 11:47:41;;;;;;;1.45;0.70;;;;;;;;;;5021344;28;20030;-73
2021/05/03 11:50:08;;;;;;;5.13;1.20;;;;;;;;;;4989883;28;20496;-71
2021/05/03 11:52:39;;;;;;;3.67;0.90;;;;;;;;;;4990347;28;20018;-72
2021/05/03 11:55:05;;;;;;;2.80;1.00;;;;;;;;;;4989999;28;20114;-79
2021/05/03 11:57:32;;;;;;;2.97;1.05;;;;;;;;;;4997444;28;20423;-73
2021/05/03 11:59:59;;;;;;;1.38;0.65;;;;;;;;;;5009554;28;20049;-80
2021/05/03 12:02:26;;;;;;;2.55;0.93;;;;;;;;;;5041264;28;20022;-80
2021/05/03 12:04:52;;;;;;;2.38;0.98;;;;;;;;;;5009171;28;20112;-72
2021/05/03 12:07:23;;;;;;;2.58;1.10;;;;;;;;;;5008427;28;20049;-80
2021/05/03 12:10:10;;;;;;;17.45;1.75;;;;;;;;;;5004368;28;20072;-80
2021/05/03 12:12:40;;;;;;;45.30;3.65;;;;;;;;;;5020252;28;20034;-76
2021/05/03 12:15:10;;;;;;;15.38;1.45;;;;;;;;;;5031355;28;20018;-78
2021/05/03 12:17:36;;;;;;;15.23;1.35;;;;;;;;;;5007465;28;20022;-81
2021/05/03 12:20:07;;;;;;;7.97;1.35;;;;;;;;;;5008999;28;20025;-79
2021/05/03 12:22:34;;;;;;;7.30;1.20;;;;;;;;;;5032181;28;20083;-82
2021/05/03 12:25:03;;;;;;;10.57;1.50;;;;;;;;;;4989005;28;20117;-81
2021/05/03 12:27:30;;;;;;;14.32;1.45;;;;;;;;;;4989102;28;20034;-80
2021/05/03 12:29:57;;;;;;;6.60;1.23;;;;;;;;;;5023585;28;20044;-79
2021/05/03 12:32:24;;;;;;;5.45;1.02;;;;;;;;;;5025455;28;20051;-81
2021/05/03 12:34:51;;;;;;;8.70;1.23;;;;;;;;;;5020795;28;20117;-82
2021/05/03 12:37:21;;;;;;;5.85;0.93;;;;;;;;;;5020646;28;20464;-78
2021/05/03 12:40:06;;;;;;;2.28;0.90;;;;;;;;;;5020218;28;20056;-79
2021/05/03 12:42:32;;;;;;;6.80;1.30;;;;;;;;;;5020669;28;20118;-81
2021/05/03 12:45:00;;;;;;;4.28;1.10;;;;;;;;;;5020547;28;20030;-77
2021/05/03 12:53:51;;;;;;;4.90;1.15;;;;;;;;;;4989445;28;20040;-81
2021/05/03 12:56:23;;;;;;;4.88;1.05;;;;;;;;;;4988995;28;20022;-80
2021/05/03 12:58:56;;;;;;;6.57;1.07;;;;;;;;;;5020488;28;20014;-80
2021/05/03 13:01:31;;;;;;;4.25;1.20;;;;;;;;;;5020654;28;20423;-82
2021/05/03 13:04:10;;;;;;;3.05;0.98;;;;;;;;;;4988822;28;20019;-79
2021/05/03 13:07:04;;;;;;;4.20;0.95;;;;;;;;;;5012099;28;20053;-81
2021/05/03 13:29:03;;;;;;;4.18;1.10;;;;;;;;;;5007513;28;20452;-81
2021/05/03 13:31:30;;;;;;;3.72;1.15;;;;;;;;;;5022126;28;20062;-80
2021/05/03 13:33:56;;;;;;;10.93;1.60;;;;;;;;;;5013794;28;20030;-70
2021/05/03 13:36:22;;;;;;;3.35;0.95;;;;;;;;;;5008533;28;20033;-70
2021/05/03 13:38:49;;;;;;;2.50;1.15;;;;;;;;;;5006889;28;20029;-74
2021/05/03 13:41:16;;;;;;;6.68;0.90;;;;;;;;;;4988348;28;20056;-72
2021/05/03 13:43:42;;;;;;;2.78;1.08;;;;;;;;;;4995843;28;20026;-75
2021/05/03 13:46:08;;;;;;;2.97;1.00;;;;;;;;;;5007929;28;20053;-73
2021/05/03 13:48:35;;;;;;;3.47;1.23;;;;;;;;;;5008102;28;20029;-74
2021/05/03 13:51:01;;;;;;;5.47;0.90;;;;;;;;;;5039727;28;20026;-72
2021/05/03 13:53:27;;;;;;;5.07;0.77;;;;;;;;;;5006940;28;20033;-75
2021/05/03 13:55:54;;;;;;;2.28;0.90;;;;;;;;;;4988841;28;20130;-75
2021/05/03 13:58:21;;;;;;;2.22;0.82;;;;;;;;;;4988207;28;20026;-72
2021/05/03 14:00:48;;;;;;;57.60;2.92;;;;;;;;;;4988153;28;20115;-71
2021/05/03 14:03:14;;;;;;;15.98;1.30;;;;;;;;;;4991291;28;20031;-68
2021/05/03 14:05:40;;;;;;;5.82;0.90;;;;;;;;;;4991621;28;20110;-71
2021/05/03 14:08:06;;;;;;;7.57;1.38;;;;;;;;;;4991369;28;20038;-69
2021/05/03 14:10:33;;;;;;;12.23;1.38;;;;;;;;;;4991344;28;20633;-71
2021/05/03 14:13:02;;;;;;;10.82;1.90;;;;;;;;;;4994496;28;20101;-79
2021/05/03 14:15:30;;;;;;;10.70;1.40;;;;;;;;;;5010801;28;20245;-70
2021/05/03 14:17:56;;;;;;;13.77;1.60;;;;;;;;;;5010968;28;20014;-70
2021/05/03 14:20:22;;;;;;;4.90;1.15;;;;;;;;;;5011062;28;20030;-72
2021/05/03 14:22:48;;;;;;;5.15;1.20;;;;;;;;;;5010773;28;20022;-70
2021/05/03 14:25:15;;;;;;;10.07;1.33;;;;;;;;;;5010582;28;20080;-69
2021/05/03 14:27:44;;;;;;;4.13;1.00;;;;;;;;;;5010878;28;20022;-70
2021/05/03 14:30:14;;;;;;;4.35;1.27;;;;;;;;;;5009787;28;20494;-70
2021/05/03 14:35:10;;;;;;;4.78;1.40;;;;;;;;;;5010835;28;20022;-68
2021/05/03 14:37:36;;;;;;;11.07;1.33;;;;;;;;;;5042644;28;20030;-71
2021/05/03 14:40:02;;;;;;;5.57;1.20;;;;;;;;;;5011030;28;20075;-68
2021/05/03 14:42:28;;;;;;;3.15;1.20;;;;;;;;;;5011003;28;20553;-70
2021/05/03 14:44:55;;;;;;;4.43;1.42;;;;;;;;;;5011259;28;20041;-66
2021/05/03 14:47:26;;;;;;;4.05;1.38;;;;;;;;;;5036629;28;20022;-70
2021/05/03 14:52:31;;;;;;;4.50;1.20;;;;;;;;;;4991126;28;20360;-70
2021/05/03 14:54:57;;;;;;;3.03;1.20;;;;;;;;;;4991623;28;20022;-71
2021/05/03 14:57:23;;;;;;;3.50;1.27;;;;;;;;;;4990690;28;20027;-70
2021/05/03 14:59:49;;;;;;;5.03;1.00;;;;;;;;;;4990559;28;20590;-71
2021/05/03 15:02:17;;;;;;;2.50;1.10;;;;;;;;;;4990798;28;20066;-68
2021/05/03 15:04:43;;;;;;;2.90;1.00;;;;;;;;;;4991128;28;20076;-69
2021/05/03 15:07:12;;;;;;;3.95;1.42;;;;;;;;;;4990666;28;20544;-68
2021/05/03 15:09:41;;;;;;;3.38;1.35;;;;;;;;;;5022094;28;20022;-72
2021/05/03 15:12:10;;;;;;;5.88;1.10;;;;;;;;;;5021969;28;20064;-73
2021/05/03 15:17:30;;;;;;;4.22;1.10;;;;;;;;;;4990450;28;20118;-68
2021/05/03 15:22:35;;;;;;;2.78;1.17;;;;;;;;;;5006698;28;20482;-71
2021/05/03 15:25:04;;;;;;;3.38;1.23;;;;;;;;;;5010238;28;20025;-72
2021/05/03 15:35:22;;;;;;;3.42;1.30;;;;;;;;;;5009775;28;20044;-71
2021/05/03 15:37:48;;;;;;;1.98;1.02;;;;;;;;;;5007722;28;20026;-70
2021/05/03 15:40:15;;;;;;;2.38;1.20;;;;;;;;;;4990070;28;20034;-72
2021/05/03 15:42:42;;;;;;;2.28;1.10;;;;;;;;;;5021474;28;20018;-65
2021/05/03 15:45:08;;;;;;;2.70;1.10;;;;;;;;;;5008775;28;20038;-67
2021/05/03 15:47:34;;;;;;;46.13;2.90;;;;;;;;;;5009387;28;20025;-68
2021/05/03 15:50:00;;;;;;;7.75;1.90;;;;;;;;;;5009413;28;20029;-67
2021/05/03 15:52:26;;;;;;;4.18;1.83;;;;;;;;;;5009818;28;20030;-68
2021/05/03 15:54:52;;;;;;;4.43;1.70;;;;;;;;;;4998587;28;20030;-68
2021/05/03 15:57:18;;;;;;;6.53;2.05;;;;;;;;;;5009528;28;20030;-68
2021/05/03 15:59:44;;;;;;;7.30;1.85;;;;;;;;;;5009520;28;20022;-68
2021/05/03 16:02:11;;;;;;;10.60;2.17;;;;;;;;;;5041284;28;20022;-68
2021/05/03 16:04:37;;;;;;;7.18;2.15;;;;;;;;;;5009538;28;20034;-68
2021/05/03 16:07:03;;;;;;;5.55;1.55;;;;;;;;;;5009351;28;20033;-68
2021/05/03 16:09:29;;;;;;;4.80;1.58;;;;;;;;;;5009213;28;20046;-68
2021/05/03 16:11:56;;;;;;;4.72;1.80;;;;;;;;;;5006459;28;20029;-68
2021/05/03 16:14:22;;;;;;;6.60;1.80;;;;;;;;;;4989673;28;20417;-67